METAR Data
IDs: Format: Raw Decoded Include TAF

Data at: 2242 UTC 25 Oct 2021

KHRL 252152Z 09010G15KT 10SM FEW036 33/26 A2986
KHRL 252052Z 11006KT 10SM FEW041 33/23 A2986
KHRL 251952Z 13007KT 10SM SCT039 33/23 A2988
KHRL 251853Z 19006KT 10SM SCT036 32/23 A2990
KHRL 251753Z 22004KT 10SM BKN033 31/24 A2993
KHRL 251653Z 16005KT 10SM SCT024 BKN030 31/24 A2994
KHRL 251602Z 17008KT 10SM BKN016 29/26 A2994 RMK AO2 T02890256
KHRL 251552Z 18006KT 10SM SCT014 28/26 A2994 RMK AO2 SLP139 T02830256
KHRL 251452Z 16007KT 10SM CLR 26/26 A2994 RMK AO2 SLP139 T02610261 51017 $
KHRL 251352Z 00000KT 5SM BR CLR 24/24 A2993 RMK AO2 SLP135 T02390239 $
KHRL 251341Z 13003KT 3SM BR SCT003 23/23 A2993 RMK AO2 T02330233 $
KHRL 251337Z 00000KT 1 1/4SM BR SCT003 23/23 A2992 RMK AO2 T02280228 $
KHRL 251330Z 14003KT 3/4SM BR VV003 23/23 A2992 RMK AO2 T02280228 $
KHRL 251312Z 00000KT 1/4SM FG VV002 22/22 A2992 RMK AO2 T02220222 $
KHRL 251252Z 00000KT OVC002 22/22 A2991 RMK AO2 SLP129 T02220222 $
KHRL 251159Z 07003KT OVC003 22/22 A2989 RMK AO2 T02220222 $
KHRL 251152Z 08003KT 1/2SM FG VV003 22/22 A2989 RMK AO2 SLP122 T02220222 10239 20211 53006 $
KHRL 251129Z 06005KT 3/4SM BR VV002 23/23 A2989 RMK AO2 T02280228 $
KHRL 251052Z 07005KT OVC002 22/22 A2988 RMK AO2 SLP116 T02170217 $
KHRL 251023Z AUTO 07004KT OVC001 22/22 A2987 RMK AO2 T02220222 $
KHRL 250952Z AUTO 11004KT OVC004 22/22 A2987 RMK AO2 SLP115 T02220222 $
KHRL 250911Z AUTO 14004KT OVC004 22/22 A2988 RMK AO2 T02170217 $
KHRL 250852Z AUTO 13005KT OVC006 22/22 A2988 RMK AO2 SLP117 T02170217 58000 $
KHRL 250819Z AUTO 12004KT BKN008 22/22 A2988 RMK AO2 T02220222 $
KHRL 250752Z AUTO 13003KT SCT010 22/22 A2988 RMK AO2 SLP118 T02220222 $
KHRL 250745Z AUTO 13003KT 3/4SM BR VV010 22/22 A2988 RMK AO2 T02220222 $
KHRL 250739Z AUTO 14004KT 1 3/4SM BR FEW010 23/23 A2988 RMK AO2 T02280228 $
KHRL 250652Z AUTO 15006KT 6SM BR CLR 23/23 A2988 RMK AO2 SLP117 T02280228 $
KHRL 250552Z AUTO 15006KT 8SM SCT012 23/23 A2988 RMK AO2 SLP117 T02330233 10283 20228 403390211 50008 $
KHRL 250452Z 13007KT CLR 23/23 A2988 RMK AO2 SLP119 T02330233 $
KHRL 250352Z 14003KT 10SM CLR 24/24 A2987 RMK AO2 SLP116 T02390239 $
KHRL 250252Z 15007KT 10SM CLR 24/24 A2986 RMK AO2 SLP109 T02440239 51022 $
KHRL 250152Z 14009KT 10SM CLR 26/24 A2984 RMK AO2 SLP104 T02610239 $
KHRL 250052Z 13010KT 10SM CLR 27/24 A2981 RMK AO2 SLP095 T02670239 $
KHRL 242352Z 12011KT 10SM FEW032 28/24 A2979 RMK AO2 SLP087 T02830244 10339 20283 53007 $
KHRL 242252Z 13013KT 10SM FEW040 31/24 A2978 RMK AO2 SLP083 T03110239 $
KHRL 242152Z 17010KT 10SM FEW045 32/23 A2978 RMK AO2 SLP083 T03220233 $
KHRL 242052Z 17007KT 10SM SCT045 33/23 A2977 RMK AO2 SLP080 T03280233 56015 $
KHRL 241952Z 16006KT 10SM SCT043 33/23 A2977 RMK AO2 SLP081 T03280228 $
KHRL 241852Z 14008KT 10SM SCT038 33/24 A2979 RMK AO2 SLP088 T03280239 $
KHRL 241752Z 15010KT 10SM SCT033 32/23 A2981 RMK AO2 SLP095 T03170233 10322 20211 58007 $
KHRL 241652Z 16008KT 10SM SCT028 30/24 A2983 RMK AO2 SLP101 T03000239 $
KHRL 241552Z 16011KT 10SM FEW018 SCT024 29/24 A2983 RMK AO2 SLP102 T02890239 $
KHRL 241452Z 17006KT 10SM CLR 27/26 A2983 RMK AO2 SLP102 T02670256 53013 $
KHRL 241352Z 00000KT 8SM CLR 24/24 A2982 RMK AO2 SLP097 T02440244 $
KHRL 241334Z 00000KT 7SM CLR 23/23 A2981 RMK AO2 T02330233 $
KHRL 241315Z 11003KT 1SM BR CLR 22/22 A2981 RMK AO2 T02170217 $
KHRL 241312Z 11003KT 1/4SM FG CLR 21/21 A2981 RMK AO2 T02110211 $
KHRL 241307Z 11003KT 1/4SM FG VV014 22/22 A2981 RMK AO2 T02170217 $
KHRL 241254Z 00000KT 3/4SM BR VV017 22/22 A2980 RMK AO2 VIS 1/4V3 T02220222 $
KHRL 241252Z 00000KT 2SM BR BKN015 22/22 A2980 RMK AO2 SLP091 T02220222 $
KHRL 241236Z 00000KT 2SM BR BKN015 22/22 A2980 RMK AO2 T02170217 $
KHRL 241233Z 00000KT 3SM BR BKN013 22/22 A2980 RMK AO2 T02220222 $
KHRL 241152Z 00000KT 3SM BR OVC007 21/21 A2979 RMK AO2 SLP089 T02110211 10233 20211 53001 $
KHRL 241127Z 11003KT 6SM BR BKN008 22/22 A2978 RMK AO2 T02170217 $
KHRL 241052Z 00000KT 6SM BR FEW015 22/22 A2978 RMK AO2 SLP085 T02170217 $